createdAt,value
2018-03-14T00:02:26.443Z,7.68
2018-03-14T00:04:54.839Z,8.38
2018-03-14T00:07:23.246Z,6.22
2018-03-14T00:09:51.648Z,7.43
2018-03-14T00:12:20.176Z,8.07
2018-03-14T00:14:48.696Z,7.50
2018-03-14T00:17:17.116Z,7.70
2018-03-14T00:19:45.628Z,13.40
2018-03-14T00:22:25.617Z,10.85
2018-03-14T00:24:54.059Z,10.82
2018-03-14T00:27:22.467Z,11.93
2018-03-14T00:29:50.889Z,8.45
2018-03-14T00:32:20.740Z,6.55
2018-03-14T00:34:49.228Z,8.35
2018-03-14T00:37:17.718Z,7.85
2018-03-14T00:39:46.148Z,9.15
2018-03-14T00:42:14.559Z,10.05
2018-03-14T00:44:42.964Z,9.80
2018-03-14T00:47:11.396Z,9.10
2018-03-14T00:49:39.793Z,9.88
2018-03-14T00:52:08.208Z,7.43
2018-03-14T00:54:36.609Z,10.13
2018-03-14T00:57:05.103Z,10.45
2018-03-14T00:59:33.541Z,10.38
2018-03-14T01:02:02.259Z,10.77
2018-03-14T01:04:30.764Z,8.98
2018-03-14T01:06:59.191Z,9.45
2018-03-14T01:09:27.600Z,12.60
2018-03-14T01:11:56.024Z,12.18
2018-03-14T01:14:24.520Z,14.98
2018-03-14T01:16:52.931Z,9.93
2018-03-14T01:19:21.312Z,10.57
2018-03-14T01:21:49.691Z,8.73
2018-03-14T01:24:18.107Z,8.73
2018-03-14T01:26:46.501Z,7.37
2018-03-14T01:29:14.892Z,8.27
2018-03-14T01:31:43.331Z,9.10
2018-03-14T01:34:11.748Z,9.32
2018-03-14T01:36:40.158Z,8.38
2018-03-14T01:39:08.578Z,8.38
2018-03-14T01:41:37.000Z,10.05
2018-03-14T01:44:05.427Z,11.12
2018-03-14T01:46:33.816Z,10.73
2018-03-14T01:49:02.202Z,8.02
2018-03-14T01:51:30.640Z,6.55
2018-03-14T01:53:59.020Z,8.75
2018-03-14T01:56:27.406Z,8.40
2018-03-14T01:58:55.931Z,8.15
2018-03-14T02:01:24.478Z,8.57
2018-03-14T02:03:52.869Z,9.00
2018-03-14T02:06:21.284Z,9.57
2018-03-14T02:08:49.669Z,9.52
2018-03-14T02:11:18.103Z,9.98
2018-03-14T02:13:46.472Z,9.00
2018-03-14T02:16:14.944Z,7.65
2018-03-14T02:18:43.304Z,7.00
2018-03-14T02:21:11.706Z,7.20
2018-03-14T02:23:40.083Z,5.82
2018-03-14T02:26:08.477Z,4.95
2018-03-14T02:28:37.035Z,3.05
2018-03-14T02:31:05.409Z,2.87
2018-03-14T02:33:33.819Z,3.45
2018-03-14T02:36:02.207Z,2.87
2018-03-14T02:38:30.616Z,2.30
2018-03-14T02:40:59.025Z,3.08
2018-03-14T02:43:27.396Z,2.90
2018-03-14T02:45:55.780Z,3.03
2018-03-14T02:48:24.135Z,2.62
2018-03-14T02:50:52.530Z,3.40
2018-03-14T02:53:20.881Z,2.65
2018-03-14T02:55:49.293Z,2.30
2018-03-14T02:58:17.663Z,2.40
2018-03-14T03:00:46.035Z,1.90
2018-03-14T03:03:14.408Z,2.15
2018-03-14T03:05:42.832Z,2.20
2018-03-14T03:08:11.627Z,2.28
2018-03-14T03:10:39.992Z,2.17
2018-03-14T03:13:08.374Z,1.52
2018-03-14T03:15:36.743Z,1.70
2018-03-14T03:18:05.103Z,1.55
2018-03-14T03:20:33.536Z,1.40
2018-03-14T03:23:01.918Z,1.25
2018-03-14T03:25:30.280Z,1.37
2018-03-14T03:27:58.635Z,1.37
2018-03-14T03:30:27.101Z,1.45
2018-03-14T03:32:55.623Z,2.10
2018-03-14T03:35:23.985Z,2.08
2018-03-14T03:37:52.374Z,2.92
2018-03-14T03:40:20.732Z,1.83
2018-03-14T03:42:49.128Z,1.65
2018-03-14T03:45:17.648Z,1.58
2018-03-14T03:47:46.036Z,1.70
2018-03-14T03:50:14.403Z,1.60
2018-03-14T03:52:42.752Z,2.00
2018-03-14T03:55:11.105Z,1.83
2018-03-14T03:57:39.491Z,1.60
2018-03-14T04:00:30.832Z,2.25
2018-03-14T04:02:59.228Z,2.60
2018-03-14T04:05:27.648Z,2.50
2018-03-14T04:07:55.986Z,3.45
2018-03-14T04:10:24.393Z,3.40
2018-03-14T04:12:54.139Z,4.20
2018-03-14T04:15:22.589Z,6.20
2018-03-14T04:17:50.985Z,7.12
2018-03-14T04:20:19.388Z,7.32
2018-03-14T04:22:47.759Z,8.80
2018-03-14T04:25:16.177Z,8.52
2018-03-14T04:27:44.628Z,9.38
2018-03-14T04:30:13.064Z,9.63
2018-03-14T04:32:41.532Z,10.00
2018-03-14T04:35:09.905Z,9.35
2018-03-14T04:37:38.303Z,9.70
2018-03-14T04:40:06.758Z,10.18
2018-03-14T04:42:35.166Z,9.52
2018-03-14T04:45:03.563Z,10.82
2018-03-14T04:47:32.174Z,10.70
2018-03-14T04:50:00.577Z,10.85
2018-03-14T04:52:29.034Z,9.73
2018-03-14T04:54:57.404Z,10.20
2018-03-14T04:57:25.823Z,10.70
2018-03-14T04:59:54.228Z,10.90
2018-03-14T05:02:22.628Z,12.20
2018-03-14T05:04:51.496Z,11.82
2018-03-14T05:07:19.895Z,12.30
2018-03-14T05:09:48.300Z,13.00
2018-03-14T05:12:16.694Z,12.63
2018-03-14T05:14:45.093Z,12.90
2018-03-14T05:17:13.935Z,13.93
2018-03-14T05:19:42.405Z,15.02
2018-03-14T05:22:10.815Z,15.38
2018-03-14T05:24:39.288Z,13.55
2018-03-14T05:27:07.671Z,14.25
2018-03-14T05:29:36.152Z,13.38
2018-03-14T05:32:04.561Z,13.90
2018-03-14T05:34:32.973Z,14.65
2018-03-14T05:37:01.405Z,16.15
2018-03-14T05:39:29.808Z,15.07
2018-03-14T05:41:58.281Z,15.45
2018-03-14T05:44:27.046Z,13.57
2018-03-14T05:46:55.445Z,12.93
2018-03-14T05:49:23.817Z,13.07
2018-03-14T05:51:52.229Z,11.93
2018-03-14T05:54:20.613Z,14.98
2018-03-14T05:56:49.085Z,13.13
2018-03-14T05:59:17.521Z,13.07
2018-03-14T06:01:46.019Z,13.38
2018-03-14T06:04:14.427Z,13.30
2018-03-14T06:06:42.890Z,14.73
2018-03-14T06:09:11.327Z,12.48
2018-03-14T06:11:39.756Z,13.90
2018-03-14T06:14:08.267Z,10.88
2018-03-14T06:16:36.662Z,11.85
2018-03-14T06:19:05.064Z,12.18
2018-03-14T06:21:33.484Z,12.18
2018-03-14T06:24:01.912Z,11.85
2018-03-14T06:26:30.303Z,11.52
2018-03-14T06:28:58.884Z,12.27
2018-03-14T06:31:27.294Z,12.50
2018-03-14T06:33:55.796Z,12.00
2018-03-14T06:36:24.187Z,12.35
2018-03-14T06:38:52.594Z,13.15
2018-03-14T06:41:21.067Z,13.20
2018-03-14T06:43:49.477Z,16.37
2018-03-14T06:46:17.970Z,16.37
2018-03-14T06:48:46.375Z,16.75
2018-03-14T06:51:14.771Z,16.85
2018-03-14T06:53:43.172Z,18.30
2018-03-14T06:56:11.567Z,18.12
2018-03-14T06:58:51.829Z,16.08
2018-03-14T07:01:31.964Z,16.80
2018-03-14T07:04:12.338Z,15.77
2018-03-14T07:06:40.745Z,15.77
2018-03-14T07:09:09.175Z,16.00
2018-03-14T07:11:37.568Z,16.33
2018-03-14T07:14:06.019Z,17.80
2018-03-14T07:16:34.472Z,19.05
2018-03-14T07:19:02.884Z,18.35
2018-03-14T07:21:31.383Z,19.00
2018-03-14T07:23:59.795Z,17.05
2018-03-14T07:26:28.195Z,18.55
2018-03-14T07:28:56.616Z,17.02
2018-03-14T07:31:25.025Z,19.60
2018-03-14T07:33:53.593Z,17.70
2018-03-14T07:36:21.998Z,20.30
2018-03-14T07:38:50.388Z,19.65
2018-03-14T07:41:18.889Z,18.85
2018-03-14T07:43:47.304Z,19.05
2018-03-14T07:46:15.809Z,19.30
2018-03-14T07:48:44.206Z,19.73
2018-03-14T07:51:12.622Z,21.40
2018-03-14T07:53:41.042Z,19.52
2018-03-14T07:56:09.436Z,18.92
2018-03-14T07:58:37.852Z,20.85
2018-03-14T08:01:06.294Z,20.48
2018-03-14T08:03:34.716Z,20.25
2018-03-14T08:06:03.112Z,20.35
2018-03-14T08:08:31.520Z,20.88
2018-03-14T08:10:59.927Z,16.33
2018-03-14T08:13:28.414Z,18.62
2018-03-14T08:15:56.912Z,18.77
2018-03-14T08:21:12.487Z,18.35
2018-03-14T08:23:40.897Z,16.60
2018-03-14T08:26:09.300Z,16.87
2018-03-14T08:28:37.780Z,17.40
2018-03-14T08:31:06.197Z,18.55
2018-03-14T08:33:34.671Z,19.20
2018-03-14T08:36:03.055Z,18.90
2018-03-14T08:38:31.472Z,18.50
2018-03-14T08:40:59.894Z,18.00
2018-03-14T08:43:28.301Z,16.83
2018-03-14T08:45:56.767Z,15.98
2018-03-14T08:48:25.172Z,15.63
2018-03-14T08:50:53.580Z,13.80
2018-03-14T08:53:21.993Z,18.37
2018-03-14T08:55:50.416Z,17.03
2018-03-14T08:58:18.868Z,15.20
2018-03-14T09:00:47.272Z,15.17
2018-03-14T09:03:15.676Z,15.77
2018-03-14T09:05:44.077Z,16.27
2018-03-14T09:08:12.491Z,17.63
2018-03-14T09:10:41.040Z,17.47
2018-03-14T09:13:09.432Z,16.07
2018-03-14T09:15:37.921Z,15.70
2018-03-14T09:18:06.337Z,15.47
2018-03-14T09:20:34.750Z,14.50
2018-03-14T09:23:03.403Z,14.87
2018-03-14T09:25:31.805Z,18.13
2018-03-14T09:28:00.196Z,17.73
2018-03-14T09:30:28.594Z,16.27
2018-03-14T09:32:56.983Z,16.83
2018-03-14T09:35:25.548Z,14.80
2018-03-14T09:37:53.944Z,15.07
2018-03-14T09:40:22.350Z,16.13
2018-03-14T09:42:50.740Z,16.43
2018-03-14T09:45:19.157Z,15.47
2018-03-14T09:47:47.614Z,16.33
2018-03-14T09:50:16.945Z,15.50
2018-03-14T09:52:45.426Z,15.20
2018-03-14T09:55:14.215Z,15.17
2018-03-14T09:57:43.060Z,16.10
2018-03-14T10:00:12.059Z,17.20
2018-03-14T10:02:40.851Z,14.80
2018-03-14T10:05:09.839Z,15.33
2018-03-14T10:07:38.886Z,14.47
2018-03-14T10:10:07.696Z,15.30
2018-03-14T10:12:36.453Z,15.10
2018-03-14T10:15:04.840Z,14.60
2018-03-14T10:17:33.264Z,15.53
2018-03-14T10:20:01.679Z,16.50
2018-03-14T10:22:30.125Z,17.20
2018-03-14T10:24:58.592Z,15.60
2018-03-14T10:27:27.007Z,13.83
2018-03-14T10:29:55.412Z,16.63
2018-03-14T10:32:23.815Z,15.23
2018-03-14T10:34:52.251Z,13.90
2018-03-14T10:37:20.705Z,14.80
2018-03-14T10:39:49.103Z,15.23
2018-03-14T10:42:17.510Z,15.00
2018-03-14T10:44:45.910Z,13.57
2018-03-14T10:47:14.323Z,13.10
2018-03-14T10:49:42.796Z,12.23
2018-03-14T10:52:11.214Z,12.30
2018-03-14T10:54:39.599Z,15.00
2018-03-14T10:57:08.018Z,14.70
2018-03-14T10:59:36.435Z,15.83
2018-03-14T11:02:10.506Z,14.77
2018-03-14T11:04:38.907Z,13.63
2018-03-14T11:07:07.327Z,12.30
2018-03-14T11:09:35.727Z,15.63
2018-03-14T11:12:05.248Z,15.27
2018-03-14T11:14:33.656Z,13.40
2018-03-14T11:17:02.170Z,14.13
2018-03-14T11:19:30.563Z,13.13
2018-03-14T11:21:59.023Z,14.80
2018-03-14T11:24:27.468Z,16.20
2018-03-14T11:26:55.976Z,13.70
2018-03-14T11:29:24.408Z,12.50
2018-03-14T11:31:52.802Z,11.30
2018-03-14T11:34:21.188Z,12.47
2018-03-14T11:36:49.718Z,14.00
2018-03-14T11:39:18.139Z,13.00
2018-03-14T11:41:46.544Z,12.40
2018-03-14T11:44:14.951Z,12.93
2018-03-14T11:46:43.425Z,10.80
2018-03-14T11:49:11.956Z,11.40
2018-03-14T11:51:40.283Z,12.10
2018-03-14T11:54:08.777Z,11.10
2018-03-14T11:56:37.189Z,10.70
2018-03-14T11:59:05.599Z,11.20
2018-03-14T12:01:34.058Z,12.03
2018-03-14T12:04:02.475Z,12.63
2018-03-14T12:06:30.857Z,12.50
2018-03-14T12:08:59.257Z,12.27
2018-03-14T12:11:27.650Z,11.43
2018-03-14T12:13:56.137Z,11.73
2018-03-14T12:16:24.749Z,12.20
2018-03-14T12:18:53.217Z,12.10
2018-03-14T12:21:21.657Z,12.27
2018-03-14T12:23:50.651Z,9.60
2018-03-14T12:26:19.263Z,10.47
2018-03-14T12:28:47.622Z,10.40
2018-03-14T12:31:16.076Z,7.73
2018-03-14T12:33:44.472Z,8.67
2018-03-14T12:36:12.875Z,8.53
2018-03-14T12:38:41.370Z,8.90
2018-03-14T12:41:09.755Z,9.97
2018-03-14T12:43:38.177Z,10.50
2018-03-14T12:46:06.581Z,9.57
2018-03-14T12:48:34.986Z,8.47
2018-03-14T12:51:03.591Z,8.63
2018-03-14T12:53:31.994Z,8.93
2018-03-14T12:56:00.396Z,10.27
2018-03-14T12:58:28.804Z,9.70
2018-03-14T13:00:57.207Z,9.00
2018-03-14T13:03:25.664Z,9.60
2018-03-14T13:05:54.085Z,9.20
2018-03-14T13:08:22.475Z,8.77
2018-03-14T13:10:50.863Z,9.63
2018-03-14T13:13:19.270Z,8.77
2018-03-14T13:15:47.825Z,7.70
2018-03-14T13:18:16.215Z,8.20
2018-03-14T13:20:44.680Z,8.30
2018-03-14T13:23:13.126Z,8.30
2018-03-14T13:25:41.530Z,9.37
2018-03-14T13:28:10.041Z,7.80
2018-03-14T13:30:41.487Z,7.60
2018-03-14T13:33:10.899Z,7.90
2018-03-14T13:35:39.287Z,8.00
2018-03-14T13:38:07.712Z,8.70
2018-03-14T13:40:36.103Z,9.20
2018-03-14T13:43:04.507Z,9.00
2018-03-14T13:45:33.377Z,8.10
2018-03-14T13:48:01.810Z,8.20
2018-03-14T13:50:30.231Z,8.80
2018-03-14T13:52:58.749Z,8.33
2018-03-14T13:55:27.157Z,8.40
2018-03-14T13:57:55.608Z,8.73
2018-03-14T14:00:24.012Z,9.00
2018-03-14T14:02:52.480Z,8.80
2018-03-14T14:05:21.047Z,8.60
2018-03-14T14:07:49.434Z,8.30
2018-03-14T14:10:17.948Z,8.63
2018-03-14T14:12:46.353Z,8.93
2018-03-14T14:15:14.760Z,9.07
2018-03-14T14:17:43.199Z,7.87
2018-03-14T14:20:11.577Z,8.30
2018-03-14T14:22:40.140Z,8.20
2018-03-14T14:25:08.556Z,9.47
2018-03-14T14:27:37.027Z,8.40
2018-03-14T14:30:05.403Z,8.90
2018-03-14T14:32:33.909Z,8.73
2018-03-14T14:35:02.389Z,9.97
2018-03-14T14:37:30.816Z,7.80
2018-03-14T14:39:59.233Z,8.97
2018-03-14T14:42:27.704Z,9.30
2018-03-14T14:44:56.108Z,9.43
2018-03-14T14:47:24.602Z,8.67
2018-03-14T14:49:53.044Z,8.20
2018-03-14T14:52:21.502Z,8.27
2018-03-14T14:54:49.928Z,8.27
2018-03-14T14:57:18.348Z,8.20
2018-03-14T14:59:46.826Z,7.10
2018-03-14T15:02:15.242Z,6.67
2018-03-14T15:04:43.688Z,8.13
2018-03-14T15:07:12.111Z,7.17
2018-03-14T15:09:40.585Z,8.10
2018-03-14T15:12:09.094Z,7.77
2018-03-14T15:14:37.490Z,5.83
2018-03-14T15:17:06.024Z,6.77
2018-03-14T15:19:34.469Z,6.40
2018-03-14T15:22:02.864Z,6.93
2018-03-14T15:24:31.389Z,6.60
2018-03-14T15:26:59.835Z,5.80
2018-03-14T15:29:28.218Z,6.10
2018-03-14T15:31:56.746Z,6.80
2018-03-14T15:34:25.196Z,7.90
2018-03-14T15:36:53.668Z,8.20
2018-03-14T15:39:22.058Z,8.20
2018-03-14T15:41:50.455Z,8.40
2018-03-14T15:44:18.868Z,7.80
2018-03-14T15:46:47.280Z,8.10
2018-03-14T15:49:15.748Z,8.43
2018-03-14T15:51:44.159Z,9.83
2018-03-14T15:54:12.521Z,8.83
2018-03-14T15:56:40.995Z,8.00
2018-03-14T15:59:09.476Z,8.30
2018-03-14T16:01:38.064Z,8.50
2018-03-14T16:04:06.512Z,7.10
2018-03-14T16:06:34.929Z,7.83
2018-03-14T16:09:03.335Z,7.63
2018-03-14T16:11:31.741Z,7.40
2018-03-14T16:14:00.344Z,7.17
2018-03-14T16:16:28.756Z,6.80
2018-03-14T16:18:57.230Z,6.83
2018-03-14T16:21:25.636Z,6.43
2018-03-14T16:23:54.069Z,8.33
2018-03-14T16:26:22.489Z,7.73
2018-03-14T16:28:50.891Z,7.47
2018-03-14T16:31:19.459Z,8.17
2018-03-14T16:33:49.033Z,8.97
2018-03-14T16:36:17.493Z,7.67
2018-03-14T16:38:45.897Z,7.57
2018-03-14T16:41:14.314Z,8.00
2018-03-14T16:43:42.880Z,8.00
2018-03-14T16:46:11.271Z,8.10
2018-03-14T16:48:39.727Z,8.83
2018-03-14T16:51:08.159Z,8.23
2018-03-14T16:53:36.556Z,8.17
2018-03-14T16:56:04.965Z,7.97
2018-03-14T16:58:33.378Z,9.70
2018-03-14T17:01:01.871Z,8.30
2018-03-14T17:03:30.306Z,8.60
2018-03-14T17:05:58.703Z,9.03
2018-03-14T17:08:27.099Z,10.70
2018-03-14T17:10:55.598Z,10.47
2018-03-14T17:13:24.055Z,12.00
2018-03-14T17:15:52.473Z,11.57
2018-03-14T17:18:20.996Z,12.00
2018-03-14T17:20:49.548Z,15.70
2018-03-14T17:23:18.030Z,15.63
2018-03-14T17:25:47.888Z,15.20
2018-03-14T17:28:16.346Z,16.20
2018-03-14T17:30:44.864Z,12.33
2018-03-14T17:33:13.260Z,13.20
2018-03-14T17:35:41.678Z,13.57
2018-03-14T17:38:10.080Z,15.27
2018-03-14T17:40:50.583Z,17.30
2018-03-14T17:43:19.009Z,18.00
2018-03-14T17:45:47.546Z,19.93
2018-03-14T17:48:16.000Z,17.70
2018-03-14T17:50:44.438Z,17.48
2018-03-14T17:53:12.880Z,15.02
2018-03-14T17:55:41.313Z,13.02
2018-03-14T17:58:09.820Z,13.20
2018-03-14T18:00:38.395Z,14.87
2018-03-14T18:03:06.828Z,16.35
2018-03-14T18:05:35.256Z,15.05
2018-03-14T18:08:03.735Z,15.70
2018-03-14T18:10:32.181Z,14.10
2018-03-14T18:13:00.580Z,13.07
2018-03-14T18:15:29.047Z,13.88
2018-03-14T18:17:57.452Z,13.75
2018-03-14T18:20:25.854Z,14.27
2018-03-14T18:22:54.340Z,14.43
2018-03-14T18:25:22.809Z,19.83
2018-03-14T18:27:51.432Z,18.60
2018-03-14T18:30:19.891Z,15.50
2018-03-14T18:32:48.354Z,15.02
2018-03-14T18:35:16.780Z,14.23
2018-03-14T18:37:45.189Z,13.93
2018-03-14T18:40:13.664Z,13.80
2018-03-14T18:42:42.089Z,14.85
2018-03-14T18:45:10.492Z,14.07
2018-03-14T18:47:38.988Z,14.10
2018-03-14T18:50:07.424Z,13.15
2018-03-14T18:52:35.954Z,13.50
2018-03-14T18:55:04.343Z,13.05
2018-03-14T18:57:32.935Z,13.77
2018-03-14T19:00:01.360Z,15.35
2018-03-14T19:02:29.808Z,16.77
2018-03-14T19:04:58.242Z,13.95
2018-03-14T19:07:26.665Z,15.00
2018-03-14T19:09:55.073Z,15.40
2018-03-14T19:12:23.569Z,14.48
2018-03-14T19:14:51.970Z,16.40
2018-03-14T19:17:20.514Z,16.70
2018-03-14T19:19:48.905Z,15.98
2018-03-14T19:22:17.371Z,17.15
2018-03-14T19:24:45.751Z,15.05
2018-03-14T19:27:14.245Z,15.68
2018-03-14T19:29:42.708Z,16.15
2018-03-14T19:32:11.092Z,14.87
2018-03-14T19:34:39.589Z,14.90
2018-03-14T19:37:08.010Z,15.68
2018-03-14T19:39:36.399Z,17.37
2018-03-14T19:42:04.976Z,16.55
2018-03-14T19:44:33.473Z,16.17
2018-03-14T19:47:01.859Z,16.95
2018-03-14T19:49:30.220Z,15.82
2018-03-14T19:51:58.586Z,17.92
2018-03-14T19:54:27.010Z,17.08
2018-03-14T19:56:55.368Z,17.10
2018-03-14T19:59:23.838Z,16.37
2018-03-14T20:01:52.263Z,18.23
2018-03-14T20:04:20.665Z,16.65
2018-03-14T20:06:49.133Z,17.77
2018-03-14T20:09:17.637Z,19.35
2018-03-14T20:11:46.124Z,17.52
2018-03-14T20:14:14.544Z,17.10
2018-03-14T20:16:42.919Z,18.17
2018-03-14T20:19:11.569Z,19.12
2018-03-14T20:21:40.057Z,18.30
2018-03-14T20:24:08.487Z,17.92
2018-03-14T20:26:36.890Z,17.98
2018-03-14T20:29:05.562Z,17.30
2018-03-14T20:31:34.151Z,18.05
2018-03-14T20:34:02.581Z,18.85
2018-03-14T20:36:31.058Z,19.48
2018-03-14T20:38:59.513Z,19.05
2018-03-14T20:41:27.921Z,21.73
2018-03-14T20:43:56.393Z,21.50
2018-03-14T20:46:24.850Z,20.95
2018-03-14T20:48:53.258Z,20.20
2018-03-14T20:51:21.660Z,21.58
2018-03-14T20:53:50.155Z,20.37
2018-03-14T20:56:18.611Z,20.85
2018-03-14T20:58:47.058Z,20.35
2018-03-14T21:01:15.496Z,21.35
2018-03-14T21:03:43.924Z,19.40
2018-03-14T21:06:12.325Z,20.65
2018-03-14T21:08:41.664Z,23.12
2018-03-14T21:11:10.051Z,21.83
2018-03-14T21:13:38.441Z,21.75
2018-03-14T21:16:06.835Z,21.60
2018-03-14T21:18:35.286Z,22.95
2018-03-14T21:21:03.696Z,22.75
2018-03-14T21:23:32.306Z,25.00
2018-03-14T21:26:00.747Z,23.08
2018-03-14T21:28:29.186Z,23.25
2018-03-14T21:30:57.581Z,22.73
2018-03-14T21:33:26.000Z,24.30
2018-03-14T21:35:54.480Z,22.80
2018-03-14T21:38:22.991Z,24.30
2018-03-14T21:40:51.389Z,21.52
2018-03-14T21:43:19.752Z,25.73
2018-03-14T21:45:48.145Z,24.50
2018-03-14T21:48:16.546Z,25.42
2018-03-14T21:50:44.921Z,26.45
2018-03-14T21:53:13.324Z,24.95
2018-03-14T21:55:41.800Z,26.75
2018-03-14T21:58:10.289Z,25.15
2018-03-14T22:00:38.690Z,24.10
2018-03-14T22:03:07.092Z,23.73
2018-03-14T22:08:10.143Z,23.73
2018-03-14T22:10:38.541Z,23.05
2018-03-14T22:13:06.974Z,26.05
2018-03-14T22:15:35.375Z,24.15
2018-03-14T22:18:03.781Z,22.90
2018-03-14T22:20:32.232Z,24.98
2018-03-14T22:23:00.714Z,23.50
2018-03-14T22:25:29.099Z,24.40
2018-03-14T22:27:57.596Z,22.98
2018-03-14T22:30:26.010Z,23.80
2018-03-14T22:32:54.467Z,24.58
2018-03-14T22:35:22.842Z,22.80
2018-03-14T22:37:51.223Z,21.80
2018-03-14T22:40:19.679Z,25.95
2018-03-14T22:42:48.095Z,22.83
2018-03-14T22:45:16.657Z,23.80
2018-03-14T22:47:45.122Z,24.92
2018-03-14T22:50:13.571Z,21.83
2018-03-14T22:52:42.006Z,23.62
2018-03-14T22:55:10.392Z,21.37
2018-03-14T22:57:38.804Z,22.30
2018-03-14T23:00:07.159Z,21.67
2018-03-14T23:02:35.643Z,21.83
2018-03-14T23:05:04.044Z,21.48
2018-03-14T23:07:32.455Z,22.25
2018-03-14T23:10:00.931Z,22.15
2018-03-14T23:12:29.311Z,22.45
2018-03-14T23:14:57.835Z,22.65
2018-03-14T23:17:26.211Z,22.60
2018-03-14T23:19:54.724Z,22.73
2018-03-14T23:22:23.131Z,22.35
2018-03-14T23:24:51.528Z,21.70
2018-03-14T23:27:19.913Z,22.50
2018-03-14T23:29:48.290Z,20.85
2018-03-14T23:32:16.767Z,20.17
2018-03-14T23:34:45.140Z,19.08
2018-03-14T23:37:13.581Z,19.48
2018-03-14T23:39:41.924Z,20.23
2018-03-14T23:42:10.323Z,18.85
2018-03-14T23:44:38.768Z,19.40
2018-03-14T23:47:07.165Z,19.33
2018-03-14T23:49:35.552Z,17.98
2018-03-14T23:52:03.962Z,20.35
2018-03-14T23:54:32.323Z,18.92
2018-03-14T23:57:00.765Z,20.40
2018-03-14T23:59:29.165Z,18.25
